createdAt,value
2022-12-08T00:01:40.926Z,10.57
2022-12-08T00:04:10.406Z,14.77
2022-12-08T00:06:59.668Z,13.60
2022-12-08T00:09:39.144Z,11.75
2022-12-08T00:12:13.739Z,12.57
2022-12-08T00:14:44.350Z,14.75
2022-12-08T00:17:15.539Z,12.45
2022-12-08T00:19:44.015Z,15.70
2022-12-08T00:22:13.433Z,15.30
2022-12-08T00:24:44.341Z,22.87
2022-12-08T00:27:15.510Z,16.02
2022-12-08T00:29:45.172Z,12.30
2022-12-08T00:32:13.172Z,14.27
2022-12-08T00:34:41.275Z,18.50
2022-12-08T00:37:08.959Z,13.90
2022-12-08T00:39:36.682Z,14.43
2022-12-08T00:42:14.002Z,11.93
2022-12-08T00:44:43.960Z,16.42
2022-12-08T00:47:12.838Z,14.30
2022-12-08T00:49:40.839Z,13.60
2022-12-08T00:52:08.859Z,12.48
2022-12-08T00:54:36.859Z,12.45
2022-12-08T00:57:04.965Z,14.50
2022-12-08T00:59:33.010Z,11.70
2022-12-08T01:02:00.698Z,12.93
2022-12-08T01:04:28.700Z,13.55
2022-12-08T01:06:56.389Z,14.65
2022-12-08T01:09:24.036Z,10.70
2022-12-08T01:11:52.116Z,13.85
2022-12-08T01:14:20.144Z,11.77
2022-12-08T01:16:48.046Z,12.80
2022-12-08T01:19:17.413Z,12.10
2022-12-08T01:21:47.352Z,15.73
2022-12-08T01:24:18.862Z,11.68
2022-12-08T01:26:47.385Z,11.52
2022-12-08T01:29:15.869Z,12.98
2022-12-08T01:31:44.613Z,11.65
2022-12-08T01:34:13.121Z,11.10
2022-12-08T01:36:41.586Z,11.77
2022-12-08T01:39:15.087Z,14.38
2022-12-08T01:41:45.041Z,13.68
2022-12-08T01:44:13.222Z,13.25
2022-12-08T01:46:43.809Z,12.82
2022-12-08T01:49:26.703Z,11.95
2022-12-08T01:52:03.634Z,15.15
2022-12-08T01:54:37.071Z,16.73
2022-12-08T01:57:10.736Z,16.80
2022-12-08T01:59:44.952Z,14.45
2022-12-08T02:02:13.247Z,12.82
2022-12-08T02:04:41.070Z,18.30
2022-12-08T02:07:10.509Z,12.27
2022-12-08T02:09:40.807Z,11.10
2022-12-08T02:12:10.500Z,13.82
2022-12-08T02:14:38.399Z,11.13
2022-12-08T02:17:41.800Z,13.90
2022-12-08T02:20:30.839Z,13.00
2022-12-08T02:23:32.193Z,14.00
2022-12-08T02:26:18.030Z,13.43
2022-12-08T02:28:45.707Z,12.38
2022-12-08T02:31:32.264Z,13.05
2022-12-08T02:34:24.777Z,11.68
2022-12-08T02:37:20.016Z,12.45
2022-12-08T02:40:29.137Z,13.45
2022-12-08T02:43:13.017Z,16.30
2022-12-08T02:45:47.051Z,12.00
2022-12-08T02:48:15.860Z,16.98
2022-12-08T02:50:43.884Z,12.88
2022-12-08T02:55:48.259Z,12.05
2022-12-08T02:58:53.977Z,13.07
2022-12-08T03:01:51.381Z,11.57
2022-12-08T03:04:31.576Z,14.10
2022-12-08T03:07:15.869Z,11.65
2022-12-08T03:09:53.607Z,11.80
2022-12-08T03:12:34.460Z,15.55
2022-12-08T03:15:09.751Z,13.18
2022-12-08T03:17:41.370Z,15.00
2022-12-08T03:20:13.192Z,15.80
2022-12-08T03:22:42.659Z,13.93
2022-12-08T03:25:15.255Z,22.50
2022-12-08T03:27:44.011Z,15.90
2022-12-08T03:30:12.137Z,18.55
2022-12-08T03:32:51.810Z,17.77
2022-12-08T03:35:28.864Z,20.10
2022-12-08T03:38:04.740Z,23.08
2022-12-08T03:40:34.041Z,18.92
2022-12-08T03:43:02.114Z,19.45
2022-12-08T03:45:30.444Z,20.80
2022-12-08T03:47:58.266Z,22.02
2022-12-08T03:50:26.487Z,17.02
2022-12-08T03:52:54.234Z,17.38
2022-12-08T03:55:22.184Z,17.52
2022-12-08T03:57:50.176Z,17.35
2022-12-08T04:00:18.589Z,20.25
2022-12-08T04:02:46.307Z,17.08
2022-12-08T04:05:14.295Z,15.85
2022-12-08T04:07:42.083Z,17.77
2022-12-08T04:10:11.152Z,18.13
2022-12-08T04:12:38.842Z,16.25
2022-12-08T04:15:07.645Z,13.65
2022-12-08T04:17:35.548Z,14.40
2022-12-08T04:20:04.216Z,21.58
2022-12-08T04:22:32.126Z,23.88
2022-12-08T04:25:00.517Z,24.85
2022-12-08T04:27:28.554Z,23.15
2022-12-08T04:29:56.218Z,21.40
2022-12-08T04:32:24.650Z,18.55
2022-12-08T04:34:52.477Z,23.60
2022-12-08T04:37:20.319Z,25.77
2022-12-08T04:39:48.301Z,19.60
2022-12-08T04:42:15.963Z,15.85
2022-12-08T04:44:44.059Z,17.35
2022-12-08T04:47:11.798Z,18.13
2022-12-08T04:49:39.686Z,14.63
2022-12-08T04:52:07.391Z,16.75
2022-12-08T04:54:35.155Z,16.85
2022-12-08T04:57:02.933Z,20.52
2022-12-08T04:59:31.673Z,20.00
2022-12-08T05:01:59.673Z,17.00
2022-12-08T05:04:27.673Z,19.23
2022-12-08T05:06:55.436Z,21.13
2022-12-08T05:09:23.318Z,19.52
2022-12-08T05:11:51.599Z,19.15
2022-12-08T05:14:20.395Z,23.27
2022-12-08T05:16:48.226Z,20.08
2022-12-08T05:19:17.579Z,23.05
2022-12-08T05:21:45.457Z,22.17
2022-12-08T05:24:13.229Z,23.40
2022-12-08T05:26:41.005Z,24.92
2022-12-08T05:29:09.254Z,21.48
2022-12-08T05:31:36.995Z,21.23
2022-12-08T05:34:04.771Z,24.95
2022-12-08T05:36:32.614Z,23.85
2022-12-08T05:39:00.485Z,24.25
2022-12-08T05:41:28.559Z,25.42
2022-12-08T05:43:56.594Z,20.95
2022-12-08T05:46:24.754Z,26.88
2022-12-08T05:48:52.752Z,30.05
2022-12-08T05:51:22.728Z,30.63
2022-12-08T05:53:52.442Z,34.78
2022-12-08T05:56:20.965Z,37.05
2022-12-08T05:58:49.192Z,33.63
2022-12-08T06:01:26.017Z,40.70
2022-12-08T06:03:54.911Z,49.33
2022-12-08T06:06:23.266Z,47.97
2022-12-08T06:08:51.419Z,51.15
2022-12-08T06:11:30.583Z,48.00
2022-12-08T06:13:59.640Z,43.80
2022-12-08T06:16:28.221Z,52.65
2022-12-08T06:18:57.015Z,51.33
2022-12-08T06:21:25.155Z,56.08
2022-12-08T06:23:55.281Z,51.15
2022-12-08T06:26:23.843Z,50.72
2022-12-08T06:28:52.190Z,50.13
2022-12-08T06:31:25.723Z,40.90
2022-12-08T06:33:54.435Z,45.63
2022-12-08T06:36:25.894Z,42.20
2022-12-08T06:38:54.418Z,38.90
2022-12-08T06:41:22.609Z,33.17
2022-12-08T06:43:50.642Z,37.78
2022-12-08T06:46:20.232Z,34.83
2022-12-08T06:48:48.479Z,28.38
2022-12-08T06:51:20.862Z,27.77
2022-12-08T06:53:48.589Z,30.42
2022-12-08T06:56:16.563Z,28.73
2022-12-08T06:58:50.432Z,29.08
2022-12-08T07:01:22.206Z,35.80
2022-12-08T07:03:50.235Z,30.13
2022-12-08T07:06:21.977Z,46.72
2022-12-08T07:08:50.325Z,49.72
2022-12-08T07:11:21.957Z,41.58
2022-12-08T07:13:51.406Z,41.35
2022-12-08T07:16:19.538Z,47.95
2022-12-08T07:18:48.241Z,41.78
2022-12-08T07:21:17.366Z,44.55
2022-12-08T07:23:55.775Z,54.00
2022-12-08T07:26:26.158Z,52.42
2022-12-08T07:28:54.143Z,57.13
2022-12-08T07:31:24.937Z,52.33
2022-12-08T07:33:53.894Z,49.33
2022-12-08T07:36:23.130Z,43.17
2022-12-08T07:38:53.730Z,44.65
2022-12-08T07:41:24.594Z,46.95
2022-12-08T07:43:54.449Z,48.88
2022-12-08T07:46:24.783Z,51.97
2022-12-08T07:48:54.822Z,50.30
2022-12-08T07:51:23.331Z,54.03
2022-12-08T07:53:54.685Z,41.53
2022-12-08T07:56:24.101Z,46.10
2022-12-08T07:58:52.442Z,43.50
2022-12-08T08:01:25.912Z,39.13
2022-12-08T08:03:55.465Z,42.95
2022-12-08T08:06:23.693Z,36.08
2022-12-08T08:08:51.635Z,35.25
2022-12-08T08:11:21.569Z,34.58
2022-12-08T08:13:50.833Z,32.08
2022-12-08T08:16:19.454Z,30.63
2022-12-08T08:18:49.638Z,34.55
2022-12-08T08:24:07.473Z,31.38
2022-12-08T08:26:35.721Z,48.10
2022-12-08T08:29:03.807Z,57.88
2022-12-08T08:31:31.787Z,55.45
2022-12-08T08:34:05.529Z,53.75
2022-12-08T08:36:33.819Z,56.95
2022-12-08T08:39:02.070Z,44.75
2022-12-08T08:41:30.014Z,44.60
2022-12-08T08:43:58.324Z,41.55
2022-12-08T08:46:26.356Z,44.13
2022-12-08T08:48:54.551Z,45.42
2022-12-08T08:51:22.425Z,48.53
2022-12-08T08:53:50.249Z,40.97
2022-12-08T08:56:22.497Z,36.92
2022-12-08T08:58:52.150Z,40.80
2022-12-08T09:01:25.826Z,46.35
2022-12-08T09:03:53.928Z,44.85
2022-12-08T09:06:23.435Z,43.60
2022-12-08T09:08:51.471Z,34.58
2022-12-08T09:11:19.488Z,76.28
2022-12-08T09:13:52.273Z,55.55
2022-12-08T09:16:21.144Z,54.63
2022-12-08T09:18:49.874Z,65.47
2022-12-08T09:21:22.955Z,58.03
2022-12-08T09:23:58.733Z,63.25
2022-12-08T09:26:28.356Z,66.45
2022-12-08T09:28:57.132Z,73.30
2022-12-08T09:31:25.895Z,59.00
2022-12-08T09:33:54.158Z,37.92
2022-12-08T09:36:22.386Z,36.92
2022-12-08T09:38:51.554Z,61.15
2022-12-08T09:41:38.890Z,58.63
2022-12-08T09:44:39.318Z,52.35
2022-12-08T09:47:21.938Z,50.63
2022-12-08T09:49:57.916Z,45.17
2022-12-08T09:52:36.178Z,36.30
2022-12-08T09:55:12.224Z,39.15
2022-12-08T09:57:40.470Z,31.58
2022-12-08T10:00:11.934Z,33.92
2022-12-08T10:02:39.910Z,29.00
2022-12-08T10:05:13.503Z,28.15
2022-12-08T10:07:49.987Z,35.20
2022-12-08T10:10:47.072Z,33.25
2022-12-08T10:13:28.374Z,31.27
2022-12-08T10:16:39.506Z,42.10
2022-12-08T10:19:23.694Z,26.23
2022-12-08T10:21:53.269Z,23.85
2022-12-08T10:24:34.822Z,27.50
2022-12-08T10:27:03.503Z,23.77
2022-12-08T10:29:32.287Z,24.35
2022-12-08T10:32:00.973Z,26.60
2022-12-08T10:34:29.110Z,25.35
2022-12-08T10:36:59.259Z,30.60
2022-12-08T10:39:35.764Z,33.05
2022-12-08T10:42:21.006Z,30.67
2022-12-08T10:44:58.005Z,32.88
2022-12-08T10:47:30.632Z,32.58
2022-12-08T10:50:23.471Z,23.88
2022-12-08T10:53:00.636Z,26.35
2022-12-08T10:55:30.220Z,33.15
2022-12-08T10:57:58.074Z,39.55
2022-12-08T11:00:28.494Z,46.45
2022-12-08T11:03:05.064Z,45.53
2022-12-08T11:05:35.833Z,45.78
2022-12-08T11:08:06.201Z,43.47
2022-12-08T11:13:06.795Z,66.60
2022-12-08T11:15:39.434Z,32.80
2022-12-08T11:18:12.117Z,31.52
2022-12-08T11:20:42.272Z,41.80
2022-12-08T11:23:27.951Z,37.38
2022-12-08T11:26:02.047Z,41.00
2022-12-08T11:28:30.409Z,33.13
2022-12-08T11:31:05.262Z,42.67
2022-12-08T11:33:34.955Z,38.63
2022-12-08T11:36:12.568Z,49.08
2022-12-08T11:38:44.021Z,54.42
2022-12-08T11:41:17.242Z,47.28
2022-12-08T11:43:54.063Z,51.80
2022-12-08T11:46:30.553Z,53.17
2022-12-08T11:49:09.825Z,51.85
2022-12-08T11:51:48.153Z,45.72
2022-12-08T11:54:26.583Z,48.13
2022-12-08T11:57:02.628Z,41.92
2022-12-08T11:59:46.563Z,45.25
2022-12-08T12:02:19.051Z,45.55
2022-12-08T12:04:54.348Z,39.45
2022-12-08T12:07:47.787Z,37.78
2022-12-08T12:10:34.476Z,44.65
2022-12-08T12:13:39.696Z,53.00
2022-12-08T12:16:28.810Z,43.47
2022-12-08T12:19:03.604Z,38.80
2022-12-08T12:21:37.082Z,45.03
2022-12-08T12:24:25.171Z,50.50
2022-12-08T12:26:58.263Z,42.97
2022-12-08T12:29:33.299Z,58.25
2022-12-08T12:32:11.583Z,45.92
2022-12-08T12:34:55.916Z,49.58
2022-12-08T12:37:38.129Z,45.67
2022-12-08T12:40:08.764Z,46.35
2022-12-08T12:42:44.318Z,51.65
2022-12-08T12:45:26.001Z,59.65
2022-12-08T12:47:57.259Z,50.00
2022-12-08T12:50:35.331Z,47.33
2022-12-08T12:53:13.632Z,27.25
2022-12-08T12:55:59.737Z,34.03
2022-12-08T12:58:31.547Z,49.42
2022-12-08T13:01:12.351Z,24.42
2022-12-08T13:04:02.786Z,14.00
2022-12-08T13:09:04.487Z,11.45
2022-12-08T13:11:50.059Z,12.20
2022-12-08T13:14:31.908Z,10.85
2022-12-08T13:17:01.810Z,16.58
2022-12-08T13:19:32.454Z,10.25
2022-12-08T13:22:01.705Z,9.00
2022-12-08T13:24:33.419Z,9.25
2022-12-08T13:27:04.437Z,8.80
2022-12-08T13:29:34.450Z,8.98
2022-12-08T13:33:16.664Z,10.25
2022-12-08T13:35:33.007Z,12.63
2022-12-08T13:38:01.362Z,11.63
2022-12-08T13:40:32.221Z,13.30
2022-12-08T13:43:19.360Z,12.63
2022-12-08T13:46:48.812Z,13.05
2022-12-08T13:57:30.812Z,15.95
2022-12-08T14:00:05.991Z,15.75
2022-12-08T14:02:48.232Z,14.48
2022-12-08T14:05:20.338Z,16.08
2022-12-08T14:07:54.449Z,14.10
2022-12-08T14:10:29.515Z,13.52
2022-12-08T14:13:06.245Z,11.23
2022-12-08T14:15:38.114Z,57.85
2022-12-08T14:18:21.665Z,14.13
2022-12-08T14:21:23.082Z,14.73
2022-12-08T14:23:51.250Z,17.00
2022-12-08T14:26:19.254Z,17.90
2022-12-08T14:28:47.807Z,14.77
2022-12-08T14:31:18.422Z,17.33
2022-12-08T14:33:51.790Z,15.50
2022-12-08T14:36:24.397Z,21.17
2022-12-08T14:38:57.374Z,20.23
2022-12-08T14:41:33.077Z,23.38
2022-12-08T14:44:24.938Z,21.92
2022-12-08T14:47:10.758Z,23.88
2022-12-08T14:49:40.571Z,62.30
2022-12-08T14:52:12.501Z,122.50
2022-12-08T14:54:43.442Z,65.47
2022-12-08T14:57:14.364Z,30.13
2022-12-08T14:59:43.813Z,27.48
2022-12-08T15:02:22.066Z,31.67
2022-12-08T15:04:55.574Z,32.22
2022-12-08T15:07:29.414Z,27.60
2022-12-08T15:10:21.439Z,29.80
2022-12-08T15:13:05.986Z,29.85
2022-12-08T15:15:48.237Z,31.10
2022-12-08T15:18:18.136Z,22.98
2022-12-08T15:20:56.864Z,20.75
2022-12-08T15:23:43.517Z,18.60
2022-12-08T15:26:29.143Z,17.33
2022-12-08T15:28:57.785Z,10.75
2022-12-08T15:31:25.667Z,10.85
2022-12-08T15:33:54.399Z,12.70
2022-12-08T15:36:22.585Z,13.15
2022-12-08T15:38:51.079Z,19.98
2022-12-08T15:41:19.242Z,16.88
2022-12-08T15:43:47.000Z,11.10
2022-12-08T15:46:15.107Z,11.82
2022-12-08T15:48:43.546Z,17.13
2022-12-08T15:51:11.737Z,14.80
2022-12-08T15:53:39.771Z,17.02
2022-12-08T15:58:58.651Z,24.20
2022-12-08T16:01:28.385Z,24.58
2022-12-08T16:07:20.355Z,10.20
2022-12-08T16:09:42.486Z,10.82
2022-12-08T16:15:59.631Z,10.55
2022-12-08T16:18:28.989Z,17.35
2022-12-08T16:21:41.759Z,11.18
2022-12-08T16:23:49.909Z,9.45
2022-12-08T16:27:01.496Z,10.02
2022-12-08T16:29:16.892Z,7.65
2022-12-08T16:31:44.875Z,9.85
2022-12-08T16:34:12.862Z,13.55
2022-12-08T16:36:41.125Z,11.85
2022-12-08T16:39:13.079Z,56.35
2022-12-08T16:41:59.403Z,29.65
2022-12-08T16:44:29.389Z,9.85
2022-12-08T16:46:57.475Z,9.60
2022-12-08T16:49:25.638Z,9.18
2022-12-08T16:51:55.509Z,9.32
2022-12-08T16:54:27.158Z,11.32
2022-12-08T16:56:55.412Z,8.98
2022-12-08T16:59:23.554Z,7.65
2022-12-08T17:01:51.643Z,7.93
2022-12-08T17:04:34.926Z,12.75
2022-12-08T17:07:03.367Z,13.25
2022-12-08T17:09:32.947Z,69.82
2022-12-08T17:12:04.226Z,59.70
2022-12-08T17:14:36.139Z,49.80
2022-12-08T17:17:22.069Z,52.75
2022-12-08T17:19:51.336Z,26.20
2022-12-08T17:22:20.080Z,17.15
2022-12-08T17:24:52.572Z,10.52
2022-12-08T17:27:20.888Z,15.50
2022-12-08T17:29:49.705Z,49.85
2022-12-08T17:32:18.934Z,95.70
2022-12-08T17:34:47.544Z,63.10
2022-12-08T17:37:15.733Z,26.85
2022-12-08T17:39:44.298Z,12.05
2022-12-08T17:42:12.325Z,7.85
2022-12-08T17:44:40.233Z,6.63
2022-12-08T17:47:08.423Z,7.22
2022-12-08T17:49:38.701Z,8.65
2022-12-08T17:52:07.121Z,8.05
2022-12-08T17:54:36.479Z,8.82
2022-12-08T17:57:06.768Z,6.65
2022-12-08T17:59:34.871Z,8.50
2022-12-08T18:02:05.177Z,6.50
2022-12-08T18:07:01.673Z,7.30
2022-12-08T18:09:31.420Z,8.25
2022-12-08T18:11:59.529Z,7.38
2022-12-08T18:14:27.493Z,9.25
2022-12-08T18:16:55.941Z,10.10
2022-12-08T18:19:24.445Z,7.82
2022-12-08T18:21:52.646Z,15.27
2022-12-08T18:24:23.716Z,10.15
2022-12-08T18:26:52.841Z,12.35
2022-12-08T18:29:24.048Z,10.05
2022-12-08T18:35:34.991Z,8.93
2022-12-08T18:38:08.633Z,10.35
2022-12-08T18:40:38.614Z,15.93
2022-12-08T18:43:11.717Z,6.30
2022-12-08T18:55:05.314Z,16.13
2022-12-08T19:02:45.203Z,10.10
2022-12-08T19:08:31.920Z,14.48
2022-12-08T19:12:15.228Z,13.13
2022-12-08T19:17:32.513Z,68.15
2022-12-08T19:25:46.873Z,32.55
2022-12-08T19:35:46.269Z,31.58
2022-12-08T19:38:20.655Z,32.20
2022-12-08T19:41:08.130Z,32.75
2022-12-08T19:43:56.198Z,27.75
2022-12-08T19:46:25.951Z,28.48
2022-12-08T19:48:54.559Z,26.05
2022-12-08T19:51:22.911Z,29.27
2022-12-08T19:53:50.783Z,20.50
2022-12-08T19:56:20.580Z,21.17
2022-12-08T19:58:49.425Z,21.17
2022-12-08T20:01:17.440Z,19.35
2022-12-08T20:03:45.765Z,12.82
2022-12-08T20:06:19.515Z,10.52
2022-12-08T20:08:50.744Z,32.83
2022-12-08T20:11:21.825Z,18.45
2022-12-08T20:13:50.646Z,17.70
2022-12-08T20:16:18.908Z,14.48
2022-12-08T20:18:49.264Z,12.27
2022-12-08T20:23:49.346Z,10.02
2022-12-08T20:26:19.748Z,8.98
2022-12-08T20:31:28.915Z,13.25
2022-12-08T20:34:00.155Z,10.73
2022-12-08T20:36:29.493Z,11.35
2022-12-08T20:38:58.222Z,14.35
2022-12-08T20:41:26.358Z,9.45
2022-12-08T20:43:54.492Z,28.88
2022-12-08T20:46:23.051Z,51.70
2022-12-08T20:48:52.501Z,52.95
2022-12-08T20:51:21.131Z,54.60
2022-12-08T20:53:50.513Z,49.83
2022-12-08T20:56:20.682Z,56.13
2022-12-08T20:58:49.181Z,75.35
2022-12-08T21:01:20.793Z,70.72
2022-12-08T21:03:49.335Z,62.05
2022-12-08T21:06:17.221Z,60.67
2022-12-08T21:08:45.635Z,70.65
2022-12-08T21:11:13.646Z,67.10
2022-12-08T21:13:43.492Z,65.78
2022-12-08T21:16:15.689Z,55.42
2022-12-08T21:18:44.045Z,56.40
2022-12-08T21:21:14.732Z,60.95
2022-12-08T21:23:43.493Z,59.15
2022-12-08T21:26:20.782Z,69.03
2022-12-08T21:28:49.170Z,53.10
2022-12-08T21:31:21.796Z,56.83
2022-12-08T21:33:50.476Z,49.08
2022-12-08T21:36:20.705Z,53.05
2022-12-08T21:41:42.473Z,49.47
2022-12-08T21:44:13.521Z,45.17
2022-12-08T21:46:42.925Z,47.40
2022-12-08T21:49:11.403Z,33.00
2022-12-08T21:51:42.819Z,55.22
2022-12-08T21:54:18.598Z,44.47
2022-12-08T21:56:49.396Z,43.58
2022-12-08T21:59:18.246Z,50.83
2022-12-08T22:01:46.740Z,56.58
2022-12-08T22:04:18.576Z,70.55
2022-12-08T22:06:47.151Z,68.85
2022-12-08T22:09:16.000Z,67.53
2022-12-08T22:11:46.296Z,59.08
2022-12-08T22:14:15.159Z,73.10
2022-12-08T22:16:44.375Z,71.28
2022-12-08T22:19:14.905Z,68.25
2022-12-08T22:21:43.964Z,65.13
2022-12-08T22:24:13.456Z,61.90
2022-12-08T22:26:42.477Z,54.15
2022-12-08T22:29:12.571Z,61.78
2022-12-08T22:31:40.692Z,54.78
2022-12-08T22:34:08.583Z,60.97
2022-12-08T22:36:36.484Z,53.60
2022-12-08T22:39:06.064Z,55.60
2022-12-08T22:41:34.816Z,52.30
2022-12-08T22:44:07.970Z,50.47
2022-12-08T22:46:36.108Z,55.88
2022-12-08T22:49:04.078Z,55.10
2022-12-08T22:51:32.105Z,50.95
2022-12-08T22:53:59.885Z,54.45
2022-12-08T22:56:27.637Z,48.75
2022-12-08T22:58:55.665Z,46.85
2022-12-08T23:01:26.194Z,50.13
2022-12-08T23:03:54.335Z,49.13
2022-12-08T23:06:22.635Z,41.78
2022-12-08T23:08:51.045Z,45.13
2022-12-08T23:11:20.344Z,41.72
2022-12-08T23:13:48.575Z,47.58
2022-12-08T23:16:16.858Z,45.78
2022-12-08T23:18:46.372Z,49.25
2022-12-08T23:21:17.726Z,57.23
2022-12-08T23:23:47.665Z,55.75
2022-12-08T23:26:17.179Z,58.13
2022-12-08T23:28:45.449Z,49.08
2022-12-08T23:31:13.921Z,52.15
2022-12-08T23:33:42.203Z,53.08
2022-12-08T23:36:12.404Z,53.03
2022-12-08T23:38:40.670Z,54.70
2022-12-08T23:41:10.926Z,50.58
2022-12-08T23:43:43.723Z,54.38
2022-12-08T23:46:12.342Z,50.90
2022-12-08T23:48:40.545Z,45.50
2022-12-08T23:51:08.769Z,53.83
2022-12-08T23:53:38.217Z,50.55
2022-12-08T23:56:10.152Z,49.00
2022-12-08T23:58:38.628Z,46.50
